createdAt,value
2018-11-13T00:01:12.264Z,63.78
2018-11-13T00:03:47.894Z,51.95
2018-11-13T00:06:23.734Z,68.40
2018-11-13T00:08:59.567Z,60.60
2018-11-13T00:11:35.098Z,69.00
2018-11-13T00:14:10.384Z,56.80
2018-11-13T00:16:45.800Z,46.95
2018-11-13T00:19:21.059Z,64.27
2018-11-13T00:21:56.644Z,53.65
2018-11-13T00:24:32.021Z,52.35
2018-11-13T00:27:07.694Z,54.23
2018-11-13T00:29:43.364Z,41.55
2018-11-13T00:32:18.687Z,56.02
2018-11-13T00:34:54.365Z,55.90
2018-11-13T00:37:29.974Z,46.18
2018-11-13T00:40:06.195Z,79.17
2018-11-13T00:42:48.789Z,68.00
2018-11-13T00:45:24.062Z,47.90
2018-11-13T00:47:59.335Z,71.33
2018-11-13T00:50:34.786Z,104.95
2018-11-13T00:53:10.241Z,67.53
2018-11-13T00:55:45.681Z,62.90
2018-11-13T00:58:21.114Z,75.10
2018-11-13T01:00:56.551Z,86.92
2018-11-13T01:03:32.074Z,88.25
2018-11-13T01:06:07.455Z,62.08
2018-11-13T01:08:42.801Z,75.35
2018-11-13T01:11:18.113Z,63.08
2018-11-13T01:13:53.485Z,52.27
2018-11-13T01:16:28.693Z,66.22
2018-11-13T01:19:04.021Z,62.35
2018-11-13T01:21:39.162Z,71.92
2018-11-13T01:24:14.642Z,80.15
2018-11-13T01:26:49.954Z,72.42
2018-11-13T01:29:25.171Z,74.32
2018-11-13T01:32:00.401Z,99.07
2018-11-13T01:34:35.781Z,72.72
2018-11-13T01:37:11.326Z,106.43
2018-11-13T01:39:46.694Z,93.95
2018-11-13T01:42:21.971Z,93.70
2018-11-13T01:44:57.239Z,128.32
2018-11-13T01:47:32.921Z,100.55
2018-11-13T01:50:09.043Z,100.07
2018-11-13T01:52:44.691Z,97.53
2018-11-13T01:55:20.476Z,97.82
2018-11-13T01:57:56.004Z,169.60
2018-11-13T02:00:31.432Z,154.87
2018-11-13T02:03:07.003Z,128.55
2018-11-13T02:05:42.351Z,125.82
2018-11-13T02:08:17.581Z,103.92
2018-11-13T02:10:53.041Z,129.85
2018-11-13T02:13:28.265Z,122.90
2018-11-13T02:16:03.623Z,116.00
2018-11-13T02:18:39.034Z,159.78
2018-11-13T02:21:14.591Z,118.60
2018-11-13T02:23:50.053Z,99.62
2018-11-13T02:26:25.580Z,146.60
2018-11-13T02:29:00.914Z,135.35
2018-11-13T02:31:36.461Z,128.68
2018-11-13T02:34:11.543Z,120.20
2018-11-13T02:36:46.861Z,139.97
2018-11-13T02:39:22.183Z,136.05
2018-11-13T02:41:57.424Z,109.80
2018-11-13T02:44:32.960Z,122.07
2018-11-13T02:47:08.631Z,125.78
2018-11-13T02:49:43.743Z,100.33
2018-11-13T02:52:19.370Z,111.65
2018-11-13T02:54:54.864Z,108.83
2018-11-13T02:57:30.291Z,116.65
2018-11-13T03:00:08.214Z,159.72
2018-11-13T03:02:43.627Z,113.68
2018-11-13T03:05:20.130Z,144.02
2018-11-13T03:07:55.661Z,118.10
2018-11-13T03:10:31.261Z,128.50
2018-11-13T03:13:07.018Z,104.75
2018-11-13T03:15:42.496Z,123.95
2018-11-13T03:18:18.052Z,121.35
2018-11-13T03:20:53.605Z,90.72
2018-11-13T03:23:29.124Z,104.83
2018-11-13T03:26:04.905Z,100.50
2018-11-13T03:28:40.342Z,135.48
2018-11-13T03:31:15.946Z,154.78
2018-11-13T03:33:51.522Z,131.57
2018-11-13T03:36:27.076Z,116.20
2018-11-13T03:39:04.286Z,126.75
2018-11-13T03:41:40.203Z,136.92
2018-11-13T03:44:15.724Z,123.05
2018-11-13T03:46:51.102Z,123.05
2018-11-13T03:49:26.284Z,157.25
2018-11-13T03:52:01.675Z,166.75
2018-11-13T03:54:37.078Z,129.93
2018-11-13T03:57:12.379Z,100.58
2018-11-13T03:59:47.684Z,129.90
2018-11-13T04:02:22.832Z,135.07
2018-11-13T04:04:58.182Z,126.12
2018-11-13T04:07:33.634Z,146.18
2018-11-13T04:10:10.067Z,239.35
2018-11-13T04:12:45.824Z,117.97
2018-11-13T04:15:22.446Z,141.97
2018-11-13T04:17:58.020Z,154.20
2018-11-13T04:20:33.688Z,140.05
2018-11-13T04:23:09.263Z,152.57
2018-11-13T04:25:44.786Z,229.18
2018-11-13T04:28:20.101Z,177.72
2018-11-13T04:30:55.693Z,175.85
2018-11-13T04:33:30.823Z,239.08
2018-11-13T04:36:06.777Z,169.43
2018-11-13T04:38:42.419Z,178.78
2018-11-13T04:41:17.831Z,201.82
2018-11-13T04:43:53.424Z,223.10
2018-11-13T04:46:28.758Z,181.05
2018-11-13T04:49:04.119Z,191.37
2018-11-13T04:51:39.781Z,186.52
2018-11-13T04:54:15.241Z,230.22
2018-11-13T04:56:50.544Z,231.30
2018-11-13T04:59:25.799Z,184.07
2018-11-13T05:02:01.121Z,176.55
2018-11-13T05:04:36.554Z,170.80
2018-11-13T05:07:12.002Z,238.12
2018-11-13T05:09:47.205Z,250.97
2018-11-13T05:12:22.568Z,163.05
2018-11-13T05:14:58.102Z,235.25
2018-11-13T05:17:33.713Z,178.65
2018-11-13T05:20:10.168Z,160.43
2018-11-13T05:22:45.642Z,298.87
2018-11-13T05:25:21.563Z,211.75
2018-11-13T05:27:58.135Z,192.07
2018-11-13T05:30:33.455Z,257.73
2018-11-13T05:33:08.766Z,213.57
2018-11-13T05:35:43.988Z,223.47
2018-11-13T05:38:19.584Z,279.45
2018-11-13T05:40:54.981Z,199.97
2018-11-13T05:43:30.528Z,268.23
2018-11-13T05:46:06.327Z,227.22
2018-11-13T05:48:41.794Z,257.40
2018-11-13T05:51:17.131Z,265.90
2018-11-13T05:53:52.448Z,272.25
2018-11-13T05:56:28.122Z,198.78
2018-11-13T05:59:03.669Z,219.20
2018-11-13T06:01:39.105Z,261.48
2018-11-13T06:04:14.555Z,228.55
2018-11-13T06:06:50.203Z,199.30
2018-11-13T06:09:25.627Z,187.12
2018-11-13T06:12:01.047Z,174.97
2018-11-13T06:14:36.424Z,203.18
2018-11-13T06:17:11.665Z,265.48
2018-11-13T06:19:46.981Z,247.25
2018-11-13T06:22:22.283Z,201.22
2018-11-13T06:24:58.062Z,340.98
2018-11-13T06:27:33.445Z,197.60
2018-11-13T06:30:19.434Z,324.00
2018-11-13T06:32:54.836Z,196.35
2018-11-13T06:35:30.069Z,194.57
2018-11-13T06:38:05.473Z,259.18
2018-11-13T06:40:40.583Z,227.70
2018-11-13T06:43:16.051Z,197.05
2018-11-13T06:45:51.532Z,236.75
2018-11-13T06:48:26.692Z,230.95
2018-11-13T06:51:02.001Z,196.78
2018-11-13T06:53:47.961Z,171.65
2018-11-13T06:56:23.345Z,160.05
2018-11-13T06:58:58.692Z,241.63
2018-11-13T07:01:34.257Z,174.30
2018-11-13T07:04:09.672Z,233.50
2018-11-13T07:06:45.044Z,206.80
2018-11-13T07:09:20.574Z,218.33
2018-11-13T07:11:55.948Z,191.28
2018-11-13T07:14:31.259Z,259.40
2018-11-13T07:17:06.677Z,202.38
2018-11-13T07:19:42.031Z,201.20
2018-11-13T07:22:17.283Z,274.65
2018-11-13T07:24:52.606Z,193.32
2018-11-13T07:27:27.890Z,235.15
2018-11-13T07:30:03.131Z,268.42
2018-11-13T07:32:38.947Z,222.37
2018-11-13T07:35:15.301Z,244.90
2018-11-13T07:37:52.399Z,184.40
2018-11-13T07:40:27.923Z,237.20
2018-11-13T07:43:03.123Z,178.00
2018-11-13T07:45:38.730Z,179.87
2018-11-13T07:48:14.387Z,186.62
2018-11-13T07:50:49.596Z,163.90
2018-11-13T07:53:25.053Z,159.78
2018-11-13T07:56:00.319Z,180.35
2018-11-13T07:58:35.896Z,149.82
2018-11-13T08:01:11.319Z,152.20
2018-11-13T08:03:46.904Z,180.00
2018-11-13T08:06:22.256Z,200.50
2018-11-13T08:08:57.704Z,143.52
2018-11-13T08:11:33.074Z,185.25
2018-11-13T08:14:08.475Z,149.45
2018-11-13T08:16:43.643Z,121.95
2018-11-13T08:19:19.094Z,155.63
2018-11-13T08:21:54.476Z,121.82
2018-11-13T08:24:29.763Z,121.00
2018-11-13T08:27:05.247Z,116.50
2018-11-13T08:29:40.571Z,116.00
2018-11-13T08:32:15.804Z,114.35
2018-11-13T08:34:51.107Z,128.93
2018-11-13T08:37:26.592Z,98.95
2018-11-13T08:40:02.050Z,107.72
2018-11-13T08:42:37.754Z,107.32
2018-11-13T08:45:13.718Z,101.22
2018-11-13T08:47:49.083Z,108.17
2018-11-13T08:50:24.467Z,100.70
2018-11-13T08:52:59.628Z,86.53
2018-11-13T08:55:35.135Z,89.13
2018-11-13T08:58:10.572Z,86.80
2018-11-13T09:00:45.643Z,94.10
2018-11-13T09:03:20.999Z,76.87
2018-11-13T09:05:56.393Z,98.35
2018-11-13T09:08:31.691Z,87.00
2018-11-13T09:11:07.154Z,105.00
2018-11-13T09:13:42.568Z,87.33
2018-11-13T09:16:18.069Z,69.30
2018-11-13T09:18:53.323Z,74.45
2018-11-13T09:21:28.798Z,86.92
2018-11-13T09:24:04.273Z,63.90
2018-11-13T09:26:39.828Z,84.42
2018-11-13T09:29:15.028Z,69.15
2018-11-13T09:31:50.389Z,64.10
2018-11-13T09:34:25.481Z,61.70
2018-11-13T09:37:00.926Z,66.33
2018-11-13T09:39:36.286Z,68.35
2018-11-13T09:42:11.613Z,64.92
2018-11-13T09:44:47.163Z,52.10
2018-11-13T09:47:22.457Z,58.98
2018-11-13T09:49:57.764Z,58.85
2018-11-13T09:52:33.061Z,42.98
2018-11-13T09:55:09.940Z,51.02
2018-11-13T09:57:45.473Z,49.15
2018-11-13T10:00:25.292Z,48.33
2018-11-13T10:03:02.017Z,43.65
2018-11-13T10:05:36.799Z,41.63
2018-11-13T10:08:12.054Z,42.25
2018-11-13T10:10:47.903Z,40.25
2018-11-13T10:13:22.894Z,50.25
2018-11-13T10:16:03.601Z,37.50
2018-11-13T10:18:39.004Z,40.17
2018-11-13T10:21:15.412Z,48.15
2018-11-13T10:23:50.684Z,48.87
2018-11-13T10:26:26.013Z,40.05
2018-11-13T10:29:01.525Z,51.20
2018-11-13T10:31:36.754Z,39.88
2018-11-13T10:34:12.084Z,32.50
2018-11-13T10:36:47.575Z,38.38
2018-11-13T10:39:22.985Z,35.68
2018-11-13T10:41:58.481Z,38.13
2018-11-13T10:44:33.641Z,38.58
2018-11-13T10:47:09.000Z,31.82
2018-11-13T10:49:44.436Z,34.43
2018-11-13T10:52:19.934Z,38.75
2018-11-13T10:54:55.225Z,38.30
2018-11-13T10:57:30.791Z,36.45
2018-11-13T11:00:13.080Z,35.95
2018-11-13T11:02:54.162Z,28.90
2018-11-13T11:05:29.841Z,30.60
2018-11-13T11:08:05.333Z,35.83
2018-11-13T11:10:40.743Z,44.83
2018-11-13T11:13:16.588Z,28.80
2018-11-13T11:15:51.697Z,31.05
2018-11-13T11:18:27.177Z,30.60
2018-11-13T11:21:02.567Z,33.63
2018-11-13T11:23:38.025Z,33.15
2018-11-13T11:26:13.550Z,34.40
2018-11-13T11:28:49.011Z,33.58
2018-11-13T11:31:25.051Z,29.02
2018-11-13T11:34:00.720Z,35.68
2018-11-13T11:36:36.054Z,28.35
2018-11-13T11:39:12.498Z,28.85
2018-11-13T11:41:47.903Z,28.05
2018-11-13T11:44:23.487Z,27.45
2018-11-13T11:46:58.913Z,24.32
2018-11-13T11:49:34.200Z,27.95
2018-11-13T11:52:09.573Z,24.63
2018-11-13T11:54:45.013Z,26.73
2018-11-13T11:57:20.556Z,22.65
2018-11-13T11:59:56.297Z,20.23
2018-11-13T12:02:31.762Z,21.37
2018-11-13T12:05:08.122Z,20.70
2018-11-13T12:07:43.661Z,22.77
2018-11-13T12:10:19.169Z,23.70
2018-11-13T12:12:54.446Z,20.45
2018-11-13T12:15:29.830Z,20.85
2018-11-13T12:18:05.524Z,19.87
2018-11-13T12:20:41.080Z,19.32
2018-11-13T12:23:16.524Z,19.87
2018-11-13T12:25:51.775Z,16.35
2018-11-13T12:28:27.180Z,20.52
2018-11-13T12:31:02.727Z,16.32
2018-11-13T12:33:38.441Z,18.35
2018-11-13T12:36:14.044Z,16.37
2018-11-13T12:38:49.692Z,19.90
2018-11-13T12:41:25.230Z,21.30
2018-11-13T12:44:00.980Z,18.67
2018-11-13T12:46:36.385Z,21.57
2018-11-13T12:49:12.032Z,19.32
2018-11-13T12:51:52.432Z,18.98
2018-11-13T12:54:27.911Z,19.75
2018-11-13T12:57:03.744Z,16.25
2018-11-13T12:59:39.240Z,20.00
2018-11-13T13:02:14.691Z,16.85
2018-11-13T13:04:50.503Z,16.48
2018-11-13T13:07:26.153Z,14.75
2018-11-13T13:10:01.475Z,19.07
2018-11-13T13:12:37.211Z,17.55
2018-11-13T13:15:14.296Z,16.60
2018-11-13T13:17:49.863Z,14.63
2018-11-13T13:20:26.513Z,15.68
2018-11-13T13:23:01.941Z,15.70
2018-11-13T13:25:37.470Z,15.20
2018-11-13T13:28:13.150Z,17.37
2018-11-13T13:30:48.910Z,16.00
2018-11-13T13:33:24.315Z,18.23
2018-11-13T13:36:03.567Z,19.10
2018-11-13T13:38:39.333Z,15.85
2018-11-13T13:41:14.716Z,24.85
2018-11-13T13:43:50.273Z,18.23
2018-11-13T13:46:25.918Z,17.23
2018-11-13T13:49:01.511Z,13.95
2018-11-13T13:51:36.972Z,14.65
2018-11-13T13:54:13.095Z,17.55
2018-11-13T13:56:49.115Z,18.60
2018-11-13T13:59:24.477Z,19.85
2018-11-13T14:02:00.071Z,14.73
2018-11-13T14:04:35.755Z,17.65
2018-11-13T14:07:11.184Z,17.40
2018-11-13T14:09:46.717Z,16.23
2018-11-13T14:12:22.021Z,17.87
2018-11-13T14:14:57.618Z,15.50
2018-11-13T14:17:33.083Z,15.32
2018-11-13T14:20:14.515Z,16.23
2018-11-13T14:22:49.911Z,16.25
2018-11-13T14:25:25.443Z,15.95
2018-11-13T14:28:00.953Z,14.65
2018-11-13T14:30:37.241Z,14.58
2018-11-13T14:33:13.037Z,17.00
2018-11-13T14:35:48.421Z,16.55
2018-11-13T14:38:23.914Z,15.60
2018-11-13T14:40:59.193Z,17.30
2018-11-13T14:43:34.543Z,14.25
2018-11-13T14:46:09.990Z,20.48
2018-11-13T14:48:45.528Z,14.73
2018-11-13T14:51:20.883Z,16.85
2018-11-13T14:53:56.481Z,12.60
2018-11-13T14:56:32.045Z,13.40
2018-11-13T14:59:07.603Z,12.80
2018-11-13T15:01:43.206Z,18.10
2018-11-13T15:04:18.704Z,15.53
2018-11-13T15:06:53.844Z,15.32
2018-11-13T15:09:29.184Z,15.48
2018-11-13T15:12:04.860Z,14.00
2018-11-13T15:14:40.293Z,18.52
2018-11-13T15:17:15.734Z,14.40
2018-11-13T15:19:51.261Z,12.55
2018-11-13T15:22:26.653Z,13.40
2018-11-13T15:25:01.996Z,13.00
2018-11-13T15:27:37.261Z,14.10
2018-11-13T15:30:15.600Z,12.98
2018-11-13T15:32:54.393Z,15.68
2018-11-13T15:35:29.974Z,14.47
2018-11-13T15:38:05.542Z,14.05
2018-11-13T15:40:40.804Z,14.00
2018-11-13T15:43:16.270Z,8.90
2018-11-13T15:45:51.611Z,13.10
2018-11-13T15:48:27.023Z,15.08
2018-11-13T15:51:02.424Z,13.55
2018-11-13T15:53:37.657Z,9.98
2018-11-13T15:56:13.091Z,9.73
2018-11-13T15:58:48.501Z,10.98
2018-11-13T16:01:23.993Z,9.48
2018-11-13T16:03:59.167Z,14.75
2018-11-13T16:06:34.432Z,17.25
2018-11-13T16:09:10.857Z,14.80
2018-11-13T16:11:46.540Z,10.23
2018-11-13T16:14:21.640Z,10.80
2018-11-13T16:16:57.257Z,12.05
2018-11-13T16:19:32.552Z,13.85
2018-11-13T16:22:08.088Z,15.53
2018-11-13T16:24:43.373Z,13.80
2018-11-13T16:27:18.456Z,15.05
2018-11-13T16:29:54.025Z,15.48
2018-11-13T16:32:29.342Z,15.83
2018-11-13T16:35:05.341Z,12.07
2018-11-13T16:37:41.886Z,7.62
2018-11-13T16:40:18.712Z,8.98
2018-11-13T16:42:54.444Z,8.95
2018-11-13T16:45:30.721Z,11.40
2018-11-13T16:48:06.943Z,9.33
2018-11-13T16:50:42.868Z,11.80
2018-11-13T16:53:18.294Z,10.80
2018-11-13T16:56:08.248Z,9.30
2018-11-13T16:58:43.714Z,12.28
2018-11-13T17:01:19.044Z,11.18
2018-11-13T17:03:54.524Z,15.00
2018-11-13T17:06:29.771Z,8.90
2018-11-13T17:09:08.267Z,7.65
2018-11-13T17:11:43.764Z,10.20
2018-11-13T17:14:19.125Z,9.65
2018-11-13T17:16:54.568Z,10.20
2018-11-13T17:19:30.037Z,12.15
2018-11-13T17:22:05.636Z,10.18
2018-11-13T17:24:40.878Z,8.95
2018-11-13T17:27:16.169Z,8.48
2018-11-13T17:29:51.405Z,9.15
2018-11-13T17:32:26.858Z,8.95
2018-11-13T17:35:02.201Z,13.75
2018-11-13T17:37:37.675Z,10.72
2018-11-13T17:40:15.382Z,8.43
2018-11-13T17:42:51.891Z,10.58
2018-11-13T17:45:30.536Z,8.85
2018-11-13T17:48:06.761Z,19.75
2018-11-13T17:50:43.182Z,10.55
2018-11-13T17:53:20.284Z,15.18
2018-11-13T17:55:55.771Z,12.25
2018-11-13T17:58:31.036Z,10.45
2018-11-13T18:01:06.307Z,13.00
2018-11-13T18:03:41.735Z,17.20
2018-11-13T18:06:17.051Z,7.97
2018-11-13T18:08:52.528Z,7.65
2018-11-13T18:11:27.725Z,15.88
2018-11-13T18:14:03.050Z,10.20
2018-11-13T18:16:38.291Z,16.75
2018-11-13T18:19:13.564Z,17.27
2018-11-13T18:21:48.959Z,9.20
2018-11-13T18:24:24.204Z,14.60
2018-11-13T18:26:59.580Z,24.15
2018-11-13T18:29:34.810Z,19.23
2018-11-13T18:32:10.191Z,14.35
2018-11-13T18:34:45.771Z,15.95
2018-11-13T18:37:21.318Z,10.45
2018-11-13T18:39:56.806Z,14.98
2018-11-13T18:42:32.872Z,16.97
2018-11-13T18:45:11.849Z,13.35
2018-11-13T18:47:47.247Z,15.35
2018-11-13T18:50:23.963Z,15.23
2018-11-13T18:52:59.243Z,13.55
2018-11-13T18:55:34.903Z,28.38
2018-11-13T18:58:10.446Z,15.95
2018-11-13T19:00:46.028Z,19.67
2018-11-13T19:03:21.400Z,18.87
2018-11-13T19:05:56.916Z,11.60
2018-11-13T19:08:32.435Z,14.18
2018-11-13T19:11:07.898Z,7.53
2018-11-13T19:13:43.249Z,22.00
2018-11-13T19:16:18.598Z,15.30
2018-11-13T19:18:54.155Z,20.72
2018-11-13T19:21:29.645Z,10.35
2018-11-13T19:24:05.317Z,23.05
2018-11-13T19:26:40.604Z,16.32
2018-11-13T19:29:16.064Z,15.45
2018-11-13T19:31:51.466Z,14.85
2018-11-13T19:34:26.654Z,15.13
2018-11-13T19:37:01.864Z,18.67
2018-11-13T19:39:37.251Z,22.98
2018-11-13T19:42:12.441Z,15.50
2018-11-13T19:44:48.907Z,18.60
2018-11-13T19:47:23.781Z,15.35
2018-11-13T19:50:00.145Z,11.75
2018-11-13T19:52:35.443Z,19.32
2018-11-13T19:55:12.392Z,13.58
2018-11-13T19:57:48.125Z,10.28
2018-11-13T20:00:25.071Z,12.60
2018-11-13T20:03:02.062Z,11.08
2018-11-13T20:05:37.641Z,23.75
2018-11-13T20:08:13.046Z,17.82
2018-11-13T20:10:48.556Z,8.43
2018-11-13T20:13:23.702Z,11.48
2018-11-13T20:15:59.049Z,10.88
2018-11-13T20:18:34.203Z,10.15
2018-11-13T20:21:09.773Z,24.07
2018-11-13T20:23:45.105Z,10.80
2018-11-13T20:26:20.310Z,14.00
2018-11-13T20:28:55.597Z,20.12
2018-11-13T20:31:30.907Z,7.75
2018-11-13T20:34:06.481Z,12.23
2018-11-13T20:36:41.835Z,13.95
2018-11-13T20:39:17.385Z,13.03
2018-11-13T20:41:53.049Z,18.82
2018-11-13T20:44:28.582Z,15.88
2018-11-13T20:47:03.889Z,11.80
2018-11-13T20:49:39.221Z,17.87
2018-11-13T20:52:14.493Z,25.80
2018-11-13T20:54:49.800Z,24.02
2018-11-13T20:57:25.335Z,9.75
2018-11-13T21:00:00.641Z,9.73
2018-11-13T21:02:36.368Z,12.73
2018-11-13T21:05:11.834Z,14.10
2018-11-13T21:07:47.453Z,18.05
2018-11-13T21:10:23.428Z,20.05
2018-11-13T21:12:58.865Z,10.10
2018-11-13T21:15:34.101Z,18.73
2018-11-13T21:18:09.395Z,25.43
2018-11-13T21:20:44.783Z,18.90
2018-11-13T21:23:19.997Z,16.45
2018-11-13T21:25:55.536Z,15.78
2018-11-13T21:28:30.951Z,15.65
2018-11-13T21:31:06.336Z,22.90
2018-11-13T21:33:41.825Z,17.90
2018-11-13T21:36:17.451Z,21.77
2018-11-13T21:38:53.646Z,18.82
2018-11-13T21:41:29.475Z,25.52
2018-11-13T21:44:05.285Z,16.75
2018-11-13T21:46:40.821Z,13.10
2018-11-13T21:49:16.135Z,17.57
2018-11-13T21:51:51.794Z,22.67
2018-11-13T21:54:27.377Z,16.60
2018-11-13T21:57:02.711Z,23.62
2018-11-13T21:59:38.287Z,25.57
2018-11-13T22:02:13.612Z,15.20
2018-11-13T22:04:49.476Z,14.25
2018-11-13T22:07:25.170Z,26.20
2018-11-13T22:10:00.707Z,24.98
2018-11-13T22:12:36.456Z,32.20
2018-11-13T22:15:13.281Z,14.78
2018-11-13T22:17:48.821Z,27.13
2018-11-13T22:20:24.834Z,23.32
2018-11-13T22:23:00.971Z,17.87
2018-11-13T22:25:36.431Z,16.27
2018-11-13T22:28:12.427Z,20.05
2018-11-13T22:30:47.824Z,18.82
2018-11-13T22:33:23.194Z,20.95
2018-11-13T22:35:58.615Z,29.18
2018-11-13T22:38:33.967Z,16.97
2018-11-13T22:41:09.469Z,19.35
2018-11-13T22:43:44.744Z,28.07
2018-11-13T22:46:20.403Z,25.70
2018-11-13T22:48:55.942Z,23.25
2018-11-13T22:51:31.285Z,21.20
2018-11-13T22:54:06.913Z,23.12
2018-11-13T22:56:42.413Z,16.02
2018-11-13T22:59:17.963Z,18.25
2018-11-13T23:01:53.131Z,14.15
2018-11-13T23:04:28.594Z,21.00
2018-11-13T23:07:03.934Z,22.55
2018-11-13T23:09:39.241Z,23.83
2018-11-13T23:12:14.611Z,19.65
2018-11-13T23:14:50.077Z,24.02
2018-11-13T23:17:25.183Z,21.93
2018-11-13T23:20:00.492Z,17.55
2018-11-13T23:22:36.327Z,21.42
2018-11-13T23:25:13.983Z,24.77
2018-11-13T23:27:50.630Z,23.20
2018-11-13T23:30:27.836Z,25.82
2018-11-13T23:33:03.359Z,22.42
2018-11-13T23:35:38.855Z,24.63
2018-11-13T23:38:14.138Z,23.65
2018-11-13T23:40:49.639Z,14.07
2018-11-13T23:43:24.940Z,25.02
2018-11-13T23:46:00.326Z,27.50
2018-11-13T23:48:35.673Z,24.50
2018-11-13T23:51:10.982Z,15.50
2018-11-13T23:53:46.239Z,24.05
2018-11-13T23:56:21.770Z,15.98
2018-11-13T23:58:57.323Z,14.10
